sensor_id;sensor_type;location;lat;lon;timestamp;P1;durP1;ratioP1;P2;durP2;ratioP2
27576;SDS011;15011;53.380;10.034;2022-12-05T00:00:23;61.22;;;28.40;;
27576;SDS011;15011;53.380;10.034;2022-12-05T00:05:25;65.40;;;29.35;;
27576;SDS011;15011;53.380;10.034;2022-12-05T00:10:25;62.72;;;29.88;;
27576;SDS011;15011;53.380;10.034;2022-12-05T00:15:25;68.43;;;30.00;;
27576;SDS011;15011;53.380;10.034;2022-12-05T00:20:26;76.03;;;33.50;;
27576;SDS011;15011;53.380;10.034;2022-12-05T00:25:26;62.97;;;28.98;;
27576;SDS011;15011;53.380;10.034;2022-12-05T00:30:27;78.35;;;30.98;;
27576;SDS011;15011;53.380;10.034;2022-12-05T00:35:27;72.35;;;30.42;;
27576;SDS011;15011;53.380;10.034;2022-12-05T00:40:28;72.68;;;29.23;;
27576;SDS011;15011;53.380;10.034;2022-12-05T00:45:28;69.35;;;28.50;;
27576;SDS011;15011;53.380;10.034;2022-12-05T00:50:29;66.97;;;29.48;;
27576;SDS011;15011;53.380;10.034;2022-12-05T00:55:29;72.63;;;30.98;;
27576;SDS011;15011;53.380;10.034;2022-12-05T01:00:30;72.40;;;29.98;;
27576;SDS011;15011;53.380;10.034;2022-12-05T01:05:32;79.43;;;31.95;;
27576;SDS011;15011;53.380;10.034;2022-12-05T01:10:33;67.00;;;29.58;;
27576;SDS011;15011;53.380;10.034;2022-12-05T01:15:35;65.90;;;29.98;;
27576;SDS011;15011;53.380;10.034;2022-12-05T01:20:39;59.60;;;26.67;;
27576;SDS011;15011;53.380;10.034;2022-12-05T01:25:41;71.55;;;28.77;;
27576;SDS011;15011;53.380;10.034;2022-12-05T01:30:45;68.05;;;29.77;;
27576;SDS011;15011;53.380;10.034;2022-12-05T01:35:46;82.70;;;31.83;;
27576;SDS011;15011;53.380;10.034;2022-12-05T01:40:47;63.80;;;27.92;;
27576;SDS011;15011;53.380;10.034;2022-12-05T01:45:47;57.92;;;28.38;;
27576;SDS011;15011;53.380;10.034;2022-12-05T01:50:48;64.85;;;28.48;;
27576;SDS011;15011;53.380;10.034;2022-12-05T01:55:50;58.47;;;27.93;;
27576;SDS011;15011;53.380;10.034;2022-12-05T02:00:50;68.53;;;29.23;;
27576;SDS011;15011;53.380;10.034;2022-12-05T02:05:51;63.35;;;27.25;;
27576;SDS011;15011;53.380;10.034;2022-12-05T02:10:54;55.13;;;27.73;;
27576;SDS011;15011;53.380;10.034;2022-12-05T02:21:13;65.03;;;27.88;;
27576;SDS011;15011;53.380;10.034;2022-12-05T02:37:26;64.40;;;27.85;;
27576;SDS011;15011;53.380;10.034;2022-12-05T02:42:37;70.70;;;28.52;;
27576;SDS011;15011;53.380;10.034;2022-12-05T02:47:46;63.50;;;27.40;;
27576;SDS011;15011;53.380;10.034;2022-12-05T02:52:49;60.45;;;28.15;;
27576;SDS011;15011;53.380;10.034;2022-12-05T02:57:53;56.83;;;27.20;;
27576;SDS011;15011;53.380;10.034;2022-12-05T03:02:56;58.17;;;26.67;;
27576;SDS011;15011;53.380;10.034;2022-12-05T03:07:58;53.63;;;26.63;;
27576;SDS011;15011;53.380;10.034;2022-12-05T03:13:02;64.00;;;26.87;;
27576;SDS011;15011;53.380;10.034;2022-12-05T03:23:15;64.45;;;28.92;;
27576;SDS011;15011;53.380;10.034;2022-12-05T03:28:24;77.10;;;29.70;;
27576;SDS011;15011;53.380;10.034;2022-12-05T03:33:33;63.80;;;29.35;;
27576;SDS011;15011;53.380;10.034;2022-12-05T03:54:43;73.18;;;29.35;;
27576;SDS011;15011;53.380;10.034;2022-12-05T04:00:07;74.03;;;30.05;;
27576;SDS011;15011;53.380;10.034;2022-12-05T04:05:26;85.88;;;32.80;;
27576;SDS011;15011;53.380;10.034;2022-12-05T04:10:28;69.97;;;27.67;;
27576;SDS011;15011;53.380;10.034;2022-12-05T04:15:31;71.82;;;28.52;;
27576;SDS011;15011;53.380;10.034;2022-12-05T04:20:52;66.45;;;29.27;;
27576;SDS011;15011;53.380;10.034;2022-12-05T04:26:22;73.30;;;29.17;;
27576;SDS011;15011;53.380;10.034;2022-12-05T04:31:32;77.32;;;29.42;;
27576;SDS011;15011;53.380;10.034;2022-12-05T04:36:41;75.60;;;28.40;;
27576;SDS011;15011;53.380;10.034;2022-12-05T04:46:47;62.67;;;26.35;;
27576;SDS011;15011;53.380;10.034;2022-12-05T04:51:52;82.18;;;31.13;;
27576;SDS011;15011;53.380;10.034;2022-12-05T04:56:59;79.38;;;29.65;;
27576;SDS011;15011;53.380;10.034;2022-12-05T05:02:06;78.57;;;28.70;;
27576;SDS011;15011;53.380;10.034;2022-12-05T05:07:08;75.10;;;28.42;;
27576;SDS011;15011;53.380;10.034;2022-12-05T05:12:10;78.70;;;29.10;;
27576;SDS011;15011;53.380;10.034;2022-12-05T05:17:11;71.38;;;28.90;;
27576;SDS011;15011;53.380;10.034;2022-12-05T05:22:11;91.90;;;29.42;;
27576;SDS011;15011;53.380;10.034;2022-12-05T05:27:12;73.63;;;27.15;;
27576;SDS011;15011;53.380;10.034;2022-12-05T05:32:12;70.05;;;26.75;;
27576;SDS011;15011;53.380;10.034;2022-12-05T05:37:12;67.25;;;24.30;;
27576;SDS011;15011;53.380;10.034;2022-12-05T05:42:13;63.45;;;23.75;;
27576;SDS011;15011;53.380;10.034;2022-12-05T05:47:13;59.00;;;23.03;;
27576;SDS011;15011;53.380;10.034;2022-12-05T05:52:14;55.13;;;22.30;;
27576;SDS011;15011;53.380;10.034;2022-12-05T05:57:14;67.53;;;24.05;;
27576;SDS011;15011;53.380;10.034;2022-12-05T06:02:15;72.35;;;25.85;;
27576;SDS011;15011;53.380;10.034;2022-12-05T06:07:15;77.53;;;25.67;;
27576;SDS011;15011;53.380;10.034;2022-12-05T06:12:16;90.55;;;28.67;;
27576;SDS011;15011;53.380;10.034;2022-12-05T06:17:16;108.35;;;29.73;;
27576;SDS011;15011;53.380;10.034;2022-12-05T06:22:16;108.78;;;30.95;;
27576;SDS011;15011;53.380;10.034;2022-12-05T06:27:17;118.47;;;32.88;;
27576;SDS011;15011;53.380;10.034;2022-12-05T06:32:17;122.45;;;32.92;;
27576;SDS011;15011;53.380;10.034;2022-12-05T06:37:18;125.70;;;33.40;;
27576;SDS011;15011;53.380;10.034;2022-12-05T06:42:18;154.55;;;35.15;;
27576;SDS011;15011;53.380;10.034;2022-12-05T06:52:21;167.57;;;38.78;;
27576;SDS011;15011;53.380;10.034;2022-12-05T06:57:22;183.07;;;40.20;;
27576;SDS011;15011;53.380;10.034;2022-12-05T07:02:22;188.65;;;38.55;;
27576;SDS011;15011;53.380;10.034;2022-12-05T07:07:22;156.85;;;37.78;;
27576;SDS011;15011;53.380;10.034;2022-12-05T07:12:23;177.90;;;37.72;;
27576;SDS011;15011;53.380;10.034;2022-12-05T07:17:24;172.23;;;41.03;;
27576;SDS011;15011;53.380;10.034;2022-12-05T07:22:24;199.32;;;41.85;;
27576;SDS011;15011;53.380;10.034;2022-12-05T07:27:25;173.05;;;39.03;;
27576;SDS011;15011;53.380;10.034;2022-12-05T07:32:25;172.57;;;39.75;;
27576;SDS011;15011;53.380;10.034;2022-12-05T07:37:26;220.32;;;43.75;;
27576;SDS011;15011;53.380;10.034;2022-12-05T07:42:26;192.13;;;43.53;;
27576;SDS011;15011;53.380;10.034;2022-12-05T07:47:28;186.15;;;40.50;;
27576;SDS011;15011;53.380;10.034;2022-12-05T07:57:30;217.35;;;42.75;;
27576;SDS011;15011;53.380;10.034;2022-12-05T08:02:31;167.07;;;38.53;;
27576;SDS011;15011;53.380;10.034;2022-12-05T08:07:31;185.63;;;43.58;;
27576;SDS011;15011;53.380;10.034;2022-12-05T08:12:31;140.73;;;37.85;;
27576;SDS011;15011;53.380;10.034;2022-12-05T08:17:32;131.80;;;34.65;;
27576;SDS011;15011;53.380;10.034;2022-12-05T08:22:33;135.43;;;35.05;;
27576;SDS011;15011;53.380;10.034;2022-12-05T08:27:33;134.38;;;33.83;;
27576;SDS011;15011;53.380;10.034;2022-12-05T08:32:33;121.05;;;31.33;;
27576;SDS011;15011;53.380;10.034;2022-12-05T08:37:34;109.57;;;32.20;;
27576;SDS011;15011;53.380;10.034;2022-12-05T08:42:34;127.57;;;34.50;;
27576;SDS011;15011;53.380;10.034;2022-12-05T08:47:35;114.40;;;32.20;;
27576;SDS011;15011;53.380;10.034;2022-12-05T08:52:35;98.13;;;28.90;;
27576;SDS011;15011;53.380;10.034;2022-12-05T08:57:36;107.97;;;32.43;;
27576;SDS011;15011;53.380;10.034;2022-12-05T09:02:36;90.70;;;29.38;;
27576;SDS011;15011;53.380;10.034;2022-12-05T09:07:38;124.75;;;32.38;;
27576;SDS011;15011;53.380;10.034;2022-12-05T09:12:38;104.95;;;30.38;;
27576;SDS011;15011;53.380;10.034;2022-12-05T09:17:39;90.50;;;29.25;;
27576;SDS011;15011;53.380;10.034;2022-12-05T09:22:40;112.45;;;31.23;;
27576;SDS011;15011;53.380;10.034;2022-12-05T09:27:40;116.13;;;31.83;;
27576;SDS011;15011;53.380;10.034;2022-12-05T09:32:41;112.05;;;29.60;;
27576;SDS011;15011;53.380;10.034;2022-12-05T09:37:41;88.07;;;28.33;;
27576;SDS011;15011;53.380;10.034;2022-12-05T09:42:43;96.47;;;28.45;;
27576;SDS011;15011;53.380;10.034;2022-12-05T09:48:05;72.03;;;25.10;;
27576;SDS011;15011;53.380;10.034;2022-12-05T10:19:21;80.23;;;26.80;;
27576;SDS011;15011;53.380;10.034;2022-12-05T10:24:37;99.45;;;29.05;;
27576;SDS011;15011;53.380;10.034;2022-12-05T10:30:24;75.35;;;24.63;;
27576;SDS011;15011;53.380;10.034;2022-12-05T10:35:13;70.50;;;25.20;;
27576;SDS011;15011;53.380;10.034;2022-12-05T10:40:16;68.78;;;23.73;;
27576;SDS011;15011;53.380;10.034;2022-12-05T10:45:18;70.80;;;25.27;;
27576;SDS011;15011;53.380;10.034;2022-12-05T10:55:36;71.40;;;24.77;;
27576;SDS011;15011;53.380;10.034;2022-12-05T11:00:43;87.00;;;26.58;;
27576;SDS011;15011;53.380;10.034;2022-12-05T11:05:51;66.80;;;24.77;;
27576;SDS011;15011;53.380;10.034;2022-12-05T11:11:05;66.63;;;27.00;;
27576;SDS011;15011;53.380;10.034;2022-12-05T11:16:09;62.38;;;23.77;;
27576;SDS011;15011;53.380;10.034;2022-12-05T11:21:22;57.10;;;22.25;;
27576;SDS011;15011;53.380;10.034;2022-12-05T11:26:33;56.63;;;22.48;;
27576;SDS011;15011;53.380;10.034;2022-12-05T11:31:36;52.17;;;22.23;;
27576;SDS011;15011;53.380;10.034;2022-12-05T11:36:40;51.28;;;21.60;;
27576;SDS011;15011;53.380;10.034;2022-12-05T12:08:28;50.33;;;21.17;;
27576;SDS011;15011;53.380;10.034;2022-12-05T12:13:33;53.30;;;21.08;;
27576;SDS011;15011;53.380;10.034;2022-12-05T12:18:42;48.63;;;20.45;;
27576;SDS011;15011;53.380;10.034;2022-12-05T12:24:05;47.22;;;20.20;;
27576;SDS011;15011;53.380;10.034;2022-12-05T12:50:29;45.92;;;20.90;;
27576;SDS011;15011;53.380;10.034;2022-12-05T12:55:43;49.45;;;21.27;;
27576;SDS011;15011;53.380;10.034;2022-12-05T13:06:25;44.85;;;20.58;;
27576;SDS011;15011;53.380;10.034;2022-12-05T13:11:30;34.92;;;17.13;;
27576;SDS011;15011;53.380;10.034;2022-12-05T13:16:35;58.42;;;20.73;;
27576;SDS011;15011;53.380;10.034;2022-12-05T13:21:39;38.03;;;16.90;;
27576;SDS011;15011;53.380;10.034;2022-12-05T13:26:43;40.78;;;17.40;;
27576;SDS011;15011;53.380;10.034;2022-12-05T13:31:45;43.65;;;17.77;;
27576;SDS011;15011;53.380;10.034;2022-12-05T13:36:47;36.80;;;16.77;;
27576;SDS011;15011;53.380;10.034;2022-12-05T13:42:12;44.47;;;17.10;;
27576;SDS011;15011;53.380;10.034;2022-12-05T13:47:30;37.33;;;17.42;;
27576;SDS011;15011;53.380;10.034;2022-12-05T13:58:02;36.92;;;16.17;;
27576;SDS011;15011;53.380;10.034;2022-12-05T14:13:39;54.85;;;20.48;;
27576;SDS011;15011;53.380;10.034;2022-12-05T14:18:43;33.72;;;16.52;;
27576;SDS011;15011;53.380;10.034;2022-12-05T14:34:48;33.22;;;16.20;;
27576;SDS011;15011;53.380;10.034;2022-12-05T14:39:55;29.63;;;13.68;;
27576;SDS011;15011;53.380;10.034;2022-12-05T14:44:58;30.15;;;14.18;;
27576;SDS011;15011;53.380;10.034;2022-12-05T14:55:19;24.52;;;12.60;;
27576;SDS011;15011;53.380;10.034;2022-12-05T15:00:21;25.40;;;11.85;;
27576;SDS011;15011;53.380;10.034;2022-12-05T15:05:23;36.55;;;14.05;;
27576;SDS011;15011;53.380;10.034;2022-12-05T15:10:36;28.30;;;13.27;;
27576;SDS011;15011;53.380;10.034;2022-12-05T15:15:44;25.40;;;13.18;;
27576;SDS011;15011;53.380;10.034;2022-12-05T15:20:57;24.13;;;12.50;;
27576;SDS011;15011;53.380;10.034;2022-12-05T15:25:58;26.90;;;12.00;;
27576;SDS011;15011;53.380;10.034;2022-12-05T15:30:58;29.50;;;12.95;;
27576;SDS011;15011;53.380;10.034;2022-12-05T15:35:59;25.10;;;12.50;;
27576;SDS011;15011;53.380;10.034;2022-12-05T15:41:00;32.08;;;14.63;;
27576;SDS011;15011;53.380;10.034;2022-12-05T15:46:07;33.40;;;13.38;;
27576;SDS011;15011;53.380;10.034;2022-12-05T15:51:25;26.97;;;12.17;;
27576;SDS011;15011;53.380;10.034;2022-12-05T15:56:31;26.73;;;12.10;;
27576;SDS011;15011;53.380;10.034;2022-12-05T16:01:36;25.40;;;11.27;;
27576;SDS011;15011;53.380;10.034;2022-12-05T16:06:48;22.27;;;11.80;;
27576;SDS011;15011;53.380;10.034;2022-12-05T16:11:56;22.42;;;12.15;;
27576;SDS011;15011;53.380;10.034;2022-12-05T16:16:59;29.63;;;12.82;;
27576;SDS011;15011;53.380;10.034;2022-12-05T16:27:21;24.67;;;11.05;;
27576;SDS011;15011;53.380;10.034;2022-12-05T16:32:26;23.73;;;10.90;;
27576;SDS011;15011;53.380;10.034;2022-12-05T16:37:27;26.95;;;11.93;;
27576;SDS011;15011;53.380;10.034;2022-12-05T16:42:28;28.10;;;13.40;;
27576;SDS011;15011;53.380;10.034;2022-12-05T16:52:40;26.30;;;12.35;;
27576;SDS011;15011;53.380;10.034;2022-12-05T16:57:40;26.95;;;12.80;;
27576;SDS011;15011;53.380;10.034;2022-12-05T17:02:41;25.30;;;13.07;;
27576;SDS011;15011;53.380;10.034;2022-12-05T17:07:41;28.88;;;13.38;;
27576;SDS011;15011;53.380;10.034;2022-12-05T17:12:42;25.85;;;13.60;;
27576;SDS011;15011;53.380;10.034;2022-12-05T17:17:43;33.08;;;16.20;;
27576;SDS011;15011;53.380;10.034;2022-12-05T17:22:43;26.40;;;13.70;;
27576;SDS011;15011;53.380;10.034;2022-12-05T17:27:44;31.48;;;14.70;;
27576;SDS011;15011;53.380;10.034;2022-12-05T17:32:44;26.58;;;14.10;;
27576;SDS011;15011;53.380;10.034;2022-12-05T17:37:45;28.40;;;13.93;;
27576;SDS011;15011;53.380;10.034;2022-12-05T17:42:45;27.52;;;15.02;;
27576;SDS011;15011;53.380;10.034;2022-12-05T17:47:46;35.85;;;16.60;;
27576;SDS011;15011;53.380;10.034;2022-12-05T17:52:49;42.58;;;16.88;;
27576;SDS011;15011;53.380;10.034;2022-12-05T17:57:51;30.52;;;14.82;;
27576;SDS011;15011;53.380;10.034;2022-12-05T18:02:51;32.10;;;15.95;;
27576;SDS011;15011;53.380;10.034;2022-12-05T18:07:52;30.23;;;14.65;;
27576;SDS011;15011;53.380;10.034;2022-12-05T18:12:52;31.13;;;15.10;;
27576;SDS011;15011;53.380;10.034;2022-12-05T18:17:53;27.25;;;13.90;;
27576;SDS011;15011;53.380;10.034;2022-12-05T18:22:54;29.70;;;15.30;;
27576;SDS011;15011;53.380;10.034;2022-12-05T18:27:55;29.50;;;14.75;;
27576;SDS011;15011;53.380;10.034;2022-12-05T18:32:55;32.33;;;16.90;;
27576;SDS011;15011;53.380;10.034;2022-12-05T18:37:56;37.80;;;17.75;;
27576;SDS011;15011;53.380;10.034;2022-12-05T18:42:56;45.22;;;19.83;;
27576;SDS011;15011;53.380;10.034;2022-12-05T18:47:56;53.88;;;23.13;;
27576;SDS011;15011;53.380;10.034;2022-12-05T18:52:57;34.53;;;16.75;;
27576;SDS011;15011;53.380;10.034;2022-12-05T18:57:57;30.85;;;15.98;;
27576;SDS011;15011;53.380;10.034;2022-12-05T19:02:59;37.25;;;16.50;;
27576;SDS011;15011;53.380;10.034;2022-12-05T19:07:59;30.38;;;15.98;;
27576;SDS011;15011;53.380;10.034;2022-12-05T19:13:00;28.90;;;14.77;;
27576;SDS011;15011;53.380;10.034;2022-12-05T19:18:00;29.73;;;15.07;;
27576;SDS011;15011;53.380;10.034;2022-12-05T19:23:01;39.83;;;17.77;;
27576;SDS011;15011;53.380;10.034;2022-12-05T19:28:01;43.20;;;19.27;;
27576;SDS011;15011;53.380;10.034;2022-12-05T19:33:02;50.08;;;20.73;;
27576;SDS011;15011;53.380;10.034;2022-12-05T19:38:02;57.72;;;24.92;;
27576;SDS011;15011;53.380;10.034;2022-12-05T19:43:03;52.88;;;24.38;;
27576;SDS011;15011;53.380;10.034;2022-12-05T19:48:03;40.55;;;20.75;;
27576;SDS011;15011;53.380;10.034;2022-12-05T19:53:04;37.75;;;19.35;;
27576;SDS011;15011;53.380;10.034;2022-12-05T19:58:05;32.63;;;16.45;;
27576;SDS011;15011;53.380;10.034;2022-12-05T20:03:06;42.63;;;20.98;;
27576;SDS011;15011;53.380;10.034;2022-12-05T20:08:06;31.38;;;15.55;;
27576;SDS011;15011;53.380;10.034;2022-12-05T20:13:07;33.90;;;19.55;;
27576;SDS011;15011;53.380;10.034;2022-12-05T20:18:07;29.70;;;16.58;;
27576;SDS011;15011;53.380;10.034;2022-12-05T20:23:07;29.00;;;16.15;;
27576;SDS011;15011;53.380;10.034;2022-12-05T20:28:08;24.48;;;14.13;;
27576;SDS011;15011;53.380;10.034;2022-12-05T20:33:08;23.80;;;14.05;;
27576;SDS011;15011;53.380;10.034;2022-12-05T20:38:09;27.02;;;14.18;;
27576;SDS011;15011;53.380;10.034;2022-12-05T20:43:09;42.65;;;18.67;;
27576;SDS011;15011;53.380;10.034;2022-12-05T20:48:10;26.35;;;14.88;;
27576;SDS011;15011;53.380;10.034;2022-12-05T20:53:10;22.90;;;14.55;;
27576;SDS011;15011;53.380;10.034;2022-12-05T20:58:11;24.98;;;13.77;;
27576;SDS011;15011;53.380;10.034;2022-12-05T21:03:11;24.83;;;15.27;;
27576;SDS011;15011;53.380;10.034;2022-12-05T21:08:12;28.20;;;15.88;;
27576;SDS011;15011;53.380;10.034;2022-12-05T21:13:12;23.77;;;13.52;;
27576;SDS011;15011;53.380;10.034;2022-12-05T21:18:13;27.35;;;15.18;;
27576;SDS011;15011;53.380;10.034;2022-12-05T21:23:14;26.52;;;15.40;;
27576;SDS011;15011;53.380;10.034;2022-12-05T21:28:14;26.67;;;16.55;;
27576;SDS011;15011;53.380;10.034;2022-12-05T21:33:15;36.92;;;21.35;;
27576;SDS011;15011;53.380;10.034;2022-12-05T21:38:16;34.22;;;19.25;;
27576;SDS011;15011;53.380;10.034;2022-12-05T21:43:16;27.77;;;17.20;;
27576;SDS011;15011;53.380;10.034;2022-12-05T21:48:17;29.10;;;16.27;;
27576;SDS011;15011;53.380;10.034;2022-12-05T21:53:18;26.23;;;14.98;;
27576;SDS011;15011;53.380;10.034;2022-12-05T21:58:19;28.38;;;16.20;;
27576;SDS011;15011;53.380;10.034;2022-12-05T22:03:20;40.85;;;19.75;;
27576;SDS011;15011;53.380;10.034;2022-12-05T22:08:20;43.00;;;19.85;;
27576;SDS011;15011;53.380;10.034;2022-12-05T22:13:20;32.42;;;17.38;;
27576;SDS011;15011;53.380;10.034;2022-12-05T22:18:21;41.85;;;19.02;;
27576;SDS011;15011;53.380;10.034;2022-12-05T22:23:21;34.60;;;18.23;;
27576;SDS011;15011;53.380;10.034;2022-12-05T22:28:22;34.67;;;17.63;;
27576;SDS011;15011;53.380;10.034;2022-12-05T22:33:23;34.42;;;17.98;;
27576;SDS011;15011;53.380;10.034;2022-12-05T22:38:24;29.98;;;16.27;;
27576;SDS011;15011;53.380;10.034;2022-12-05T22:43:27;33.03;;;17.35;;
27576;SDS011;15011;53.380;10.034;2022-12-05T22:48:29;30.90;;;16.77;;
27576;SDS011;15011;53.380;10.034;2022-12-05T22:53:29;24.00;;;14.57;;
27576;SDS011;15011;53.380;10.034;2022-12-05T22:58:31;32.75;;;16.25;;
27576;SDS011;15011;53.380;10.034;2022-12-05T23:03:32;33.85;;;16.80;;
27576;SDS011;15011;53.380;10.034;2022-12-05T23:08:33;33.90;;;16.88;;
27576;SDS011;15011;53.380;10.034;2022-12-05T23:13:33;37.63;;;17.73;;
27576;SDS011;15011;53.380;10.034;2022-12-05T23:18:35;32.10;;;16.42;;
27576;SDS011;15011;53.380;10.034;2022-12-05T23:23:46;35.63;;;16.42;;
27576;SDS011;15011;53.380;10.034;2022-12-05T23:28:47;47.97;;;20.38;;
27576;SDS011;15011;53.380;10.034;2022-12-05T23:33:48;29.90;;;15.45;;
27576;SDS011;15011;53.380;10.034;2022-12-05T23:38:49;36.13;;;16.50;;
27576;SDS011;15011;53.380;10.034;2022-12-05T23:43:50;28.83;;;15.05;;
27576;SDS011;15011;53.380;10.034;2022-12-05T23:48:51;31.02;;;16.27;;
27576;SDS011;15011;53.380;10.034;2022-12-05T23:53:55;41.65;;;16.05;;
27576;SDS011;15011;53.380;10.034;2022-12-05T23:58:57;32.92;;;15.73;;
